Time;durP1;ratioP1;P1;durP2;ratioP2;P2;SDS_P1;SDS_P2;PMS_P1;PMS_P2;Temp;Humidity;BMP_temperature;BMP_pressure;BME280_temperature;BME280_humidity;BME280_pressure;Samples;Min_cycle;Max_cycle;Signal;HPM_P1;HPM_P2
2022/07/03 00:01:54;;;;;;;1999.90;999.90;;;17.80;99.90;;;;;;5017853;28;20503;-66
2022/07/03 00:04:21;;;;;;;1999.90;999.90;;;17.80;99.90;;;;;;5016609;28;21037;-67
2022/07/03 00:06:48;;;;;;;1999.90;999.90;;;17.90;99.90;;;;;;5016092;28;20479;-68
2022/07/03 00:09:15;;;;;;;1999.90;999.90;;;18.00;99.90;;;;;;5017951;28;21073;-68
2022/07/03 00:11:43;;;;;;;1999.90;999.90;;;18.00;99.90;;;;;;5016493;28;20466;-68
2022/07/03 00:14:11;;;;;;;1999.90;999.90;;;18.00;99.90;;;;;;5017786;28;20552;-67
2022/07/03 00:16:37;;;;;;;1999.90;999.90;;;18.10;99.90;;;;;;5015392;28;20951;-68
2022/07/03 00:19:05;;;;;;;1999.90;999.90;;;18.10;99.90;;;;;;5017656;28;20918;-69
2022/07/03 00:21:35;;;;;;;1999.90;999.90;;;18.20;99.90;;;;;;5016283;28;20463;-70
2022/07/03 00:24:05;;;;;;;1999.90;999.90;;;18.20;99.90;;;;;;5017186;28;21041;-67
2022/07/03 00:26:36;;;;;;;1999.90;999.90;;;18.20;99.90;;;;;;5016396;28;20476;-67
2022/07/03 00:29:04;;;;;;;1999.90;999.90;;;18.30;99.90;;;;;;5066731;22;20508;-70
2022/07/03 00:31:33;;;;;;;1999.90;999.90;;;18.30;99.90;;;;;;5070640;28;20452;-70
2022/07/03 00:34:01;;;;;;;1999.90;999.90;;;18.30;99.90;;;;;;5072104;28;20456;-70
2022/07/03 00:36:31;;;;;;;1999.90;999.90;;;18.40;99.90;;;;;;5072514;28;20499;-71
2022/07/03 00:38:57;;;;;;;1999.90;999.90;;;18.40;99.90;;;;;;5064412;28;20481;-70
2022/07/03 00:41:30;;;;;;;1999.90;999.90;;;18.40;99.90;;;;;;5060947;28;20611;-70
2022/07/03 00:43:56;;;;;;;1999.90;999.90;;;18.40;99.90;;;;;;5059888;28;20457;-71
2022/07/03 00:46:25;;;;;;;1999.90;999.90;;;18.30;99.90;;;;;;5060491;28;20547;-70
2022/07/03 00:48:56;;;;;;;1999.90;999.90;;;18.20;99.90;;;;;;5056205;28;20484;-70
2022/07/03 00:51:24;;;;;;;1999.90;999.90;;;18.10;99.90;;;;;;5059555;28;21452;-70
2022/07/03 00:53:53;;;;;;;1999.90;999.90;;;18.10;99.90;;;;;;5061356;28;20870;-68
2022/07/03 00:56:25;;;;;;;1999.90;999.90;;;18.00;99.90;;;;;;5058887;28;20960;-70
2022/07/03 00:58:55;;;;;;;1999.90;999.90;;;18.00;99.90;;;;;;5062076;28;20492;-70
2022/07/03 01:01:23;;;;;;;1999.90;999.90;;;17.90;99.90;;;;;;5065504;28;20464;-71
2022/07/03 01:03:54;;;;;;;1999.90;999.90;;;17.90;99.90;;;;;;5064099;28;21090;-70
2022/07/03 01:06:24;;;;;;;1999.90;999.90;;;17.80;99.90;;;;;;5065644;28;20479;-68
2022/07/03 01:08:53;;;;;;;1999.90;999.90;;;17.80;99.90;;;;;;5062379;28;20542;-70
2022/07/03 01:11:23;;;;;;;1999.90;999.90;;;17.70;99.90;;;;;;5061208;28;20463;-68
2022/07/03 01:14:04;;;;;;;1999.90;999.90;;;17.70;99.90;;;;;;5062743;28;20463;-70
2022/07/03 01:16:37;;;;;;;1999.90;999.90;;;17.70;99.90;;;;;;5067926;28;20469;-70
2022/07/03 01:19:21;;;;;;;1999.90;999.90;;;17.90;99.90;;;;;;5065797;28;20531;-70
2022/07/03 01:21:56;;;;;;;1999.90;999.90;;;17.70;99.90;;;;;;5065605;28;21049;-69
2022/07/03 01:24:45;;;;;;;1999.90;999.90;;;17.70;99.90;;;;;;5062276;28;21111;-70
2022/07/03 01:27:17;;;;;;;1999.90;999.90;;;17.70;99.90;;;;;;5060693;28;20492;-69
2022/07/03 01:29:55;;;;;;;1999.90;999.90;;;17.60;99.90;;;;;;5064964;28;20488;-69
2022/07/03 01:32:24;;;;;;;1999.90;999.90;;;17.60;99.90;;;;;;5061712;28;20836;-71
2022/07/03 01:34:53;;;;;;;1999.90;999.90;;;17.40;99.90;;;;;;5062812;28;20465;-70
2022/07/03 01:37:24;;;;;;;1999.90;999.90;;;17.40;99.90;;;;;;5061983;28;20808;-69
2022/07/03 01:39:53;;;;;;;1999.90;999.90;;;17.40;99.90;;;;;;5062232;28;20957;-71
2022/07/03 01:42:24;;;;;;;1999.90;999.90;;;17.40;99.90;;;;;;5062962;28;20465;-69
2022/07/03 01:44:52;;;;;;;1999.90;999.90;;;17.60;99.90;;;;;;5064955;28;20457;-69
2022/07/03 01:47:20;;;;;;;1999.90;999.90;;;17.50;99.90;;;;;;5062318;28;20511;-70
2022/07/03 01:49:50;;;;;;;1999.90;999.90;;;17.50;99.90;;;;;;5058362;28;20539;-69
2022/07/03 01:52:18;;;;;;;1999.90;999.90;;;17.50;99.90;;;;;;5062760;28;20492;-71
2022/07/03 01:54:46;;;;;;;1999.90;999.90;;;17.60;99.90;;;;;;5062580;28;21030;-70
2022/07/03 01:57:13;;;;;;;1999.90;999.90;;;17.50;99.90;;;;;;5061392;28;20520;-70
2022/07/03 01:59:42;;;;;;;1999.90;999.90;;;17.20;99.90;;;;;;5062420;28;20481;-69
2022/07/03 02:02:20;;;;;;;1999.90;999.90;;;17.30;99.90;;;;;;5065171;28;20457;-70
2022/07/03 02:04:56;;;;;;;1999.90;999.90;;;17.30;99.90;;;;;;5062551;28;20530;-70
2022/07/03 02:07:37;;;;;;;1999.90;999.90;;;17.20;99.90;;;;;;5063105;28;21043;-70
2022/07/03 02:10:06;;;;;;;1999.90;999.90;;;17.10;99.90;;;;;;5061744;28;20565;-70
2022/07/03 02:12:39;;;;;;;1999.90;999.90;;;17.00;99.90;;;;;;5061864;28;20515;-69
2022/07/03 02:15:09;;;;;;;1999.90;999.90;;;17.10;99.90;;;;;;5060347;28;20810;-70
2022/07/03 02:17:39;;;;;;;1999.90;999.90;;;17.10;99.90;;;;;;5059470;28;20461;-70
2022/07/03 02:20:08;;;;;;;1999.90;999.90;;;17.10;99.90;;;;;;5064096;28;20510;-69
2022/07/03 02:22:36;;;;;;;1999.90;999.90;;;17.00;99.90;;;;;;5057979;28;20850;-69
2022/07/03 02:25:06;;;;;;;1999.90;999.90;;;16.90;99.90;;;;;;5062227;28;20461;-70
2022/07/03 02:27:42;;;;;;;1999.90;999.90;;;16.80;99.90;;;;;;5060038;28;20481;-70
2022/07/03 02:30:11;;;;;;;1999.90;999.90;;;16.70;99.90;;;;;;5063414;28;20471;-70
2022/07/03 02:32:43;;;;;;;1999.90;999.90;;;16.70;99.90;;;;;;5063079;28;20461;-68
2022/07/03 02:35:12;;;;;;;1999.90;999.90;;;16.60;99.90;;;;;;5059733;28;21012;-70
2022/07/03 02:37:45;;;;;;;1999.90;999.90;;;16.60;99.90;;;;;;5061199;28;20538;-70
2022/07/03 02:40:23;;;;;;;1999.90;999.90;;;16.70;99.90;;;;;;5058785;28;20871;-69
2022/07/03 02:42:59;;;;;;;1999.90;999.90;;;16.80;99.90;;;;;;5060162;28;20461;-70
2022/07/03 02:45:33;;;;;;;1999.90;999.90;;;16.80;99.90;;;;;;5060558;28;20518;-70
2022/07/03 02:48:07;;;;;;;1999.90;999.90;;;16.80;99.90;;;;;;5063787;28;20485;-69
2022/07/03 02:50:37;;;;;;;1999.90;999.90;;;16.80;99.90;;;;;;5063079;28;20461;-70
2022/07/03 02:53:05;;;;;;;1999.90;999.90;;;16.50;99.90;;;;;;5060236;28;20469;-70
2022/07/03 02:55:43;;;;;;;1999.90;999.90;;;16.50;99.90;;;;;;5057299;28;21604;-70
2022/07/03 02:58:28;;;;;;;1999.90;999.90;;;16.50;99.90;;;;;;5057640;28;20481;-69
2022/07/03 03:01:00;;;;;;;1999.90;999.90;;;16.50;99.90;;;;;;5067062;28;20833;-70
2022/07/03 03:03:29;;;;;;;1999.90;999.90;;;16.50;99.90;;;;;;5064180;28;20514;-69
2022/07/03 03:06:01;;;;;;;1999.90;999.90;;;16.70;99.90;;;;;;5064371;28;20961;-70
2022/07/03 03:08:35;;;;;;;1999.90;999.90;;;16.90;99.90;;;;;;5062092;28;21189;-70
2022/07/03 03:11:07;;;;;;;1999.90;999.90;;;17.10;99.90;;;;;;5062911;28;20466;-70
2022/07/03 03:13:35;;;;;;;1999.90;999.90;;;17.00;99.90;;;;;;5057200;28;20461;-71
2022/07/03 03:16:06;;;;;;;1999.90;999.90;;;16.90;99.90;;;;;;5062760;28;20461;-72
2022/07/03 03:18:38;;;;;;;1999.90;999.90;;;16.70;99.90;;;;;;5060334;28;20509;-69
2022/07/03 03:21:07;;;;;;;1999.90;999.90;;;16.70;99.90;;;;;;5060008;28;20473;-69
2022/07/03 03:23:45;;;;;;;1999.90;999.90;;;16.70;99.90;;;;;;5059896;28;20607;-70
2022/07/03 03:26:12;;;;;;;1999.90;999.90;;;16.90;99.90;;;;;;5059004;28;20937;-71
2022/07/03 03:28:40;;;;;;;1999.90;999.90;;;17.00;99.90;;;;;;5056393;28;20489;-70
2022/07/03 03:31:09;;;;;;;1999.90;999.90;;;16.80;99.90;;;;;;5058706;28;20825;-70
2022/07/03 03:33:40;;;;;;;1999.90;999.90;;;16.80;99.90;;;;;;5061465;28;20461;-70
2022/07/03 03:36:08;;;;;;;1999.90;999.90;;;16.90;99.90;;;;;;5058813;28;20466;-71
2022/07/03 03:38:35;;;;;;;1999.90;999.90;;;16.90;99.90;;;;;;5059764;28;20902;-71
2022/07/03 03:41:03;;;;;;;1999.90;999.90;;;16.90;99.90;;;;;;5063905;28;20546;-71
2022/07/03 03:43:30;;;;;;;1999.90;999.90;;;17.00;99.90;;;;;;5062493;28;20457;-71
2022/07/03 03:45:57;;;;;;;1999.90;999.90;;;16.90;99.90;;;;;;5060479;28;20469;-68
2022/07/03 03:48:25;;;;;;;1999.90;999.90;;;17.00;99.90;;;;;;5056677;28;20626;-69
2022/07/03 03:50:52;;;;;;;1999.90;999.90;;;17.10;99.90;;;;;;5059608;28;20458;-70
2022/07/03 03:53:19;;;;;;;1999.90;999.90;;;17.00;99.90;;;;;;5059544;28;20555;-70
2022/07/03 03:56:00;;;;;;;1999.90;999.90;;;17.00;99.90;;;;;;5059686;28;20516;-70
2022/07/03 03:58:27;;;;;;;1999.90;999.90;;;17.10;99.90;;;;;;5061951;28;20473;-71
2022/07/03 04:00:56;;;;;;;1999.90;999.90;;;17.00;99.90;;;;;;5063171;28;20515;-69
2022/07/03 04:03:24;;;;;;;1999.90;999.90;;;16.90;99.90;;;;;;5060332;28;20460;-71
2022/07/03 04:05:51;;;;;;;1999.90;999.90;;;17.00;99.90;;;;;;5056746;28;20877;-69
2022/07/03 04:08:17;;;;;;;1999.90;999.90;;;16.90;99.90;;;;;;5059314;28;21012;-68
2022/07/03 04:10:44;;;;;;;1999.90;999.90;;;16.80;99.90;;;;;;5059472;28;20461;-68
2022/07/03 04:13:11;;;;;;;1999.90;999.90;;;16.80;99.90;;;;;;5056974;28;20473;-69
2022/07/03 04:15:37;;;;;;;1999.90;999.90;;;16.70;99.90;;;;;;5058613;28;21172;-70
2022/07/03 04:18:04;;;;;;;1999.90;999.90;;;16.70;99.90;;;;;;5059271;28;20536;-70
2022/07/03 04:20:33;;;;;;;1999.90;999.90;;;16.80;99.90;;;;;;5059611;28;20465;-71
2022/07/03 04:23:00;;;;;;;1999.90;999.90;;;17.00;99.90;;;;;;5062209;28;20499;-71
2022/07/03 04:25:27;;;;;;;1999.90;999.90;;;17.10;99.90;;;;;;5061981;28;20953;-69
2022/07/03 04:27:54;;;;;;;1999.90;999.90;;;17.20;99.90;;;;;;5057810;28;20485;-71
2022/07/03 04:30:21;;;;;;;1999.90;999.90;;;17.40;99.90;;;;;;5060374;28;20548;-70
2022/07/03 04:32:48;;;;;;;1999.90;999.90;;;17.40;99.90;;;;;;5060997;28;20498;-70
2022/07/03 04:35:15;;;;;;;1999.90;999.90;;;17.60;99.90;;;;;;5068410;28;20988;-70
2022/07/03 04:37:44;;;;;;;1999.90;999.90;;;18.10;99.90;;;;;;5060921;28;20449;-71
2022/07/03 04:40:11;;;;;;;1999.90;999.90;;;18.60;99.90;;;;;;5064163;28;20463;-71
2022/07/03 04:42:38;;;;;;;1999.90;999.90;;;19.20;99.90;;;;;;5065531;28;20465;-69
2022/07/03 04:45:07;;;;;;;1999.90;999.90;;;19.50;99.90;;;;;;5065531;28;20465;-69
2022/07/03 04:47:33;;;;;;;1999.90;999.90;;;19.80;99.90;;;;;;5059484;28;20477;-69
2022/07/03 04:50:00;;;;;;;1999.90;999.90;;;20.10;99.90;;;;;;5060153;28;20467;-70
2022/07/03 04:52:27;;;;;;;1999.90;999.90;;;20.00;99.90;;;;;;5062858;28;20506;-70
2022/07/03 04:54:55;;;;;;;1999.90;999.90;;;20.40;99.90;;;;;;5065232;28;20522;-70
2022/07/03 04:57:21;;;;;;;1999.90;999.90;;;20.60;99.90;;;;;;5063783;28;20822;-68
2022/07/03 04:59:48;;;;;;;1999.90;999.90;;;20.90;99.90;;;;;;5059860;28;20466;-71
2022/07/03 05:02:14;;;;;;;1999.90;999.90;;;21.50;99.90;;;;;;5062381;28;20518;-68
2022/07/03 05:04:41;;;;;;;1999.90;999.90;;;21.70;99.90;;;;;;5064622;28;20461;-69
2022/07/03 05:07:08;;;;;;;1999.90;999.90;;;21.70;99.90;;;;;;5062152;28;20534;-69
2022/07/03 05:09:34;;;;;;;1999.90;999.90;;;21.80;99.90;;;;;;5060612;28;20510;-67
2022/07/03 05:12:03;;;;;;;1999.90;999.90;;;21.90;99.90;;;;;;5062918;28;20867;-67
2022/07/03 05:14:29;;;;;;;1999.90;999.90;;;21.40;99.90;;;;;;5062653;28;20457;-67
2022/07/03 05:16:56;;;;;;;1999.90;999.90;;;21.70;99.90;;;;;;5062624;28;20465;-69
2022/07/03 05:19:23;;;;;;;1999.90;999.90;;;22.20;99.90;;;;;;5062582;28;20531;-70
2022/07/03 05:21:49;;;;;;;1999.90;999.90;;;21.90;99.90;;;;;;5059592;28;20506;-71
2022/07/03 05:24:16;;;;;;;1999.90;999.90;;;21.60;99.90;;;;;;5061034;28;20461;-70
2022/07/03 05:26:43;;;;;;;1999.90;999.90;;;22.30;99.90;;;;;;5059129;28;21672;-70
2022/07/03 05:29:10;;;;;;;1999.90;999.90;;;22.40;99.90;;;;;;5061754;28;20492;-70
2022/07/03 05:31:37;;;;;;;1999.90;999.90;;;22.60;99.90;;;;;;5060563;28;20461;-71
2022/07/03 05:34:04;;;;;;;1999.90;999.90;;;22.70;99.90;;;;;;5060808;28;21034;-71
2022/07/03 05:36:30;;;;;;;1999.90;999.90;;;22.80;99.90;;;;;;5062473;28;20531;-72
2022/07/03 05:41:41;;;;;;;1999.90;999.90;;;23.50;99.90;;;;;;5063805;28;20436;-70
2022/07/03 05:44:08;;;;;;;1999.90;999.90;;;23.40;99.90;;;;;;5062020;28;20461;-71
2022/07/03 05:46:36;;;;;;;1999.90;999.90;;;23.30;99.90;;;;;;5061388;28;20468;-71
2022/07/03 05:49:02;;;;;;;1999.90;999.90;;;23.40;99.90;;;;;;5058980;28;20486;-71
2022/07/03 05:51:29;;;;;;;1999.90;999.90;;;23.50;99.90;;;;;;5058515;28;21060;-70
2022/07/03 05:53:56;;;;;;;1999.90;999.90;;;23.80;99.90;;;;;;5064686;28;20457;-71
2022/07/03 05:56:23;;;;;;;1999.90;999.90;;;23.90;99.90;;;;;;5061301;28;20461;-71
2022/07/03 05:58:50;;;;;;;1999.90;999.90;;;23.80;99.90;;;;;;5058663;28;20562;-70
2022/07/03 06:01:16;;;;;;;1999.90;999.90;;;24.10;99.90;;;;;;5062336;28;20458;-70
2022/07/03 06:03:44;;;;;;;1999.90;999.90;;;24.30;99.90;;;;;;5062261;28;20465;-71
2022/07/03 06:06:11;;;;;;;1999.90;999.90;;;24.60;99.90;;;;;;5066770;28;20547;-71
2022/07/03 06:08:38;;;;;;;1999.90;999.90;;;24.70;99.90;;;;;;5059659;28;20988;-68
2022/07/03 06:11:04;;;;;;;1999.90;999.90;;;24.90;99.90;;;;;;5061931;28;20456;-69
2022/07/03 06:13:31;;;;;;;1999.90;999.90;;;25.20;99.90;;;;;;5063461;28;20473;-69
2022/07/03 06:15:58;;;;;;;1999.90;999.90;;;25.30;99.90;;;;;;5061873;28;20476;-69
2022/07/03 06:18:24;;;;;;;1999.90;999.90;;;25.20;99.90;;;;;;5063621;28;20477;-69
2022/07/03 06:20:52;;;;;;;1999.90;999.90;;;25.30;99.90;;;;;;5059186;28;20457;-71
2022/07/03 06:23:19;;;;;;;1999.90;999.90;;;25.70;99.90;;;;;;5061958;28;20510;-71
2022/07/03 06:25:45;;;;;;;1999.90;999.90;;;25.60;99.90;;;;;;5060621;28;20457;-72
2022/07/03 06:28:12;;;;;;;1999.90;999.90;;;25.50;99.90;;;;;;5081994;22;20564;-69
2022/07/03 06:30:39;;;;;;;1999.90;999.90;;;25.80;99.90;;;;;;5025969;28;20459;-68
2022/07/03 06:33:05;;;;;;;1999.90;999.90;;;26.00;99.40;;;;;;5032974;28;20958;-65
2022/07/03 06:35:32;;;;;;;1999.90;999.90;;;25.50;99.90;;;;;;5033450;28;20489;-65
2022/07/03 06:38:03;;;;;;;1999.90;999.90;;;25.80;99.90;;;;;;5033043;28;20485;-68
2022/07/03 06:40:30;;;;;;;1999.90;999.90;;;26.00;99.90;;;;;;5032567;28;20530;-68
2022/07/03 06:42:56;;;;;;;1999.90;999.90;;;26.20;99.90;;;;;;5032858;28;20866;-68
2022/07/03 06:45:23;;;;;;;1999.90;999.90;;;26.50;99.20;;;;;;5022563;28;20468;-68
2022/07/03 06:47:50;;;;;;;1999.90;999.90;;;26.60;98.30;;;;;;5016775;28;20493;-69
2022/07/03 06:50:16;;;;;;;1999.90;999.90;;;26.60;98.10;;;;;;5018349;28;20471;-67
2022/07/03 06:52:43;;;;;;;1999.90;999.90;;;26.60;96.60;;;;;;5017312;28;20463;-68
2022/07/03 06:55:11;;;;;;;1999.90;999.90;;;26.70;96.20;;;;;;5017984;28;21454;-67
2022/07/03 06:57:38;;;;;;;1999.90;999.90;;;26.90;94.80;;;;;;5017794;28;20971;-67
2022/07/03 07:00:06;;;;;;;1999.90;999.90;;;26.90;95.60;;;;;;5016995;28;20487;-68
2022/07/03 07:02:33;;;;;;;1999.90;999.90;;;26.60;95.00;;;;;;5019187;28;20526;-71
2022/07/03 07:04:59;;;;;;;1999.90;999.90;;;27.00;95.70;;;;;;5018512;28;20566;-68
2022/07/03 07:07:26;;;;;;;1999.90;999.90;;;27.40;93.90;;;;;;5017709;28;20524;-67
2022/07/03 07:09:53;;;;;;;1999.90;999.90;;;27.50;92.30;;;;;;5016897;28;21074;-68
2022/07/03 07:12:21;;;;;;;1999.90;999.90;;;27.20;92.20;;;;;;5019164;28;20561;-69
2022/07/03 07:14:47;;;;;;;1999.90;999.90;;;27.40;92.70;;;;;;5017955;28;21071;-68
2022/07/03 07:17:14;;;;;;;1999.90;999.90;;;27.60;90.30;;;;;;5016334;28;20517;-69
2022/07/03 07:19:40;;;;;;;1999.90;999.90;;;27.60;90.00;;;;;;5017819;28;20529;-68
2022/07/03 07:22:07;;;;;;;1999.90;999.90;;;27.20;90.20;;;;;;5019638;28;21234;-68
2022/07/03 07:24:34;;;;;;;1999.90;999.90;;;27.30;90.50;;;;;;5017099;28;22014;-67
2022/07/03 07:27:00;;;;;;;1999.90;999.90;;;27.50;89.80;;;;;;5016368;28;20468;-68
2022/07/03 07:29:28;;;;;;;1999.90;999.90;;;27.20;89.10;;;;;;5018304;28;20486;-68
2022/07/03 07:31:55;;;;;;;1999.90;999.90;;;27.60;86.70;;;;;;5017274;28;20485;-66
2022/07/03 07:34:22;;;;;;;1999.90;999.90;;;27.80;86.10;;;;;;5018928;28;20521;-68
2022/07/03 07:36:48;;;;;;;1999.90;999.90;;;27.40;87.70;;;;;;5017046;28;20984;-68
2022/07/03 07:39:15;;;;;;;1999.90;999.90;;;27.50;87.40;;;;;;5016269;28;20483;-69
2022/07/03 07:41:42;;;;;;;1999.90;999.90;;;27.80;86.20;;;;;;5016615;28;20464;-69
2022/07/03 07:44:08;;;;;;;1999.90;999.90;;;27.90;84.50;;;;;;5017410;28;20479;-68
2022/07/03 07:46:36;;;;;;;1999.90;999.90;;;28.00;86.50;;;;;;5018425;28;20528;-68
2022/07/03 07:49:03;;;;;;;1999.90;999.90;;;27.90;88.00;;;;;;5017874;28;20556;-69
2022/07/03 07:51:30;;;;;;;1999.90;999.90;;;27.90;85.20;;;;;;5017348;28;20521;-69
2022/07/03 07:53:59;;;;;;;1999.90;999.90;;;28.10;84.30;;;;;;5017135;28;20529;-68
2022/07/03 07:56:26;;;;;;;1999.90;999.90;;;28.40;83.80;;;;;;5018801;28;20471;-66
2022/07/03 07:58:53;;;;;;;1999.90;999.90;;;28.50;82.20;;;;;;5017325;28;20479;-69
2022/07/03 08:06:50;;;;;;;1999.90;999.90;;;28.70;82.80;;;;;;5018250;28;20466;-66
2022/07/03 08:09:17;;;;;;;1999.90;999.90;;;29.30;81.60;;;;;;5019578;28;20489;-69
2022/07/03 08:11:43;;;;;;;1999.90;999.90;;;29.20;80.10;;;;;;5022259;28;20466;-68
2022/07/03 08:14:10;;;;;;;1999.90;999.90;;;29.00;79.50;;;;;;5023455;28;20519;-67
2022/07/03 08:16:38;;;;;;;1999.90;999.90;;;28.60;81.60;;;;;;5020535;28;20463;-66
2022/07/03 08:19:06;;;;;;;1999.90;999.90;;;28.10;82.90;;;;;;5020193;28;20490;-66
2022/07/03 08:21:33;;;;;;;1999.90;999.90;;;27.90;84.00;;;;;;5022009;28;20466;-66
2022/07/03 08:24:00;;;;;;;1999.90;999.90;;;28.20;82.40;;;;;;5021201;28;20463;-65
2022/07/03 08:26:26;;;;;;;1999.90;999.90;;;28.00;82.90;;;;;;5020269;28;20525;-68
2022/07/03 08:28:53;;;;;;;1999.90;999.90;;;28.00;80.80;;;;;;5019327;28;20517;-66
2022/07/03 08:31:20;;;;;;;1999.90;999.90;;;27.80;81.10;;;;;;5022061;28;20467;-67
2022/07/03 08:33:46;;;;;;;1999.90;999.90;;;27.80;80.30;;;;;;5021362;28;20521;-66
2022/07/03 08:36:14;;;;;;;1999.90;999.90;;;27.80;79.80;;;;;;5019797;28;20522;-68
2022/07/03 08:38:41;;;;;;;1999.90;999.90;;;28.20;82.20;;;;;;5020191;28;20495;-68
2022/07/03 08:41:09;;;;;;;1999.90;999.90;;;28.50;76.80;;;;;;5021398;28;20467;-67
2022/07/03 08:43:37;;;;;;;1999.90;999.90;;;28.80;77.20;;;;;;5019987;28;20455;-68
2022/07/03 08:46:04;;;;;;;1999.90;999.90;;;28.40;77.80;;;;;;5021194;28;20526;-66
2022/07/03 08:48:34;;;;;;;1999.90;999.90;;;28.10;78.50;;;;;;5022250;28;20487;-66
2022/07/03 08:51:02;;;;;;;1999.90;999.90;;;28.20;77.80;;;;;;5019393;28;20467;-66
2022/07/03 08:53:30;;;;;;;1999.90;999.90;;;28.70;75.90;;;;;;5019199;28;20471;-67
2022/07/03 08:55:57;;;;;;;1999.90;999.90;;;29.00;74.00;;;;;;5020677;28;20467;-67
2022/07/03 08:58:24;;;;;;;1999.90;999.90;;;29.50;74.50;;;;;;5020452;28;20541;-67
2022/07/03 09:00:51;;;;;;;1999.90;999.90;;;29.30;73.80;;;;;;5020469;28;20489;-68
2022/07/03 09:03:19;;;;;;;1999.90;999.90;;;29.60;72.00;;;;;;5019935;28;20474;-68
2022/07/03 09:05:47;;;;;;;1999.90;999.90;;;29.50;69.70;;;;;;5021023;28;20462;-67
2022/07/03 09:08:16;;;;;;;1999.90;999.90;;;29.60;72.90;;;;;;5018905;28;20911;-67
2022/07/03 09:10:44;;;;;;;1999.90;999.90;;;29.40;72.20;;;;;;5018781;28;20487;-67
2022/07/03 09:13:12;;;;;;;1999.90;999.90;;;29.10;74.10;;;;;;5021124;28;21424;-69
2022/07/03 09:15:38;;;;;;;1999.90;999.90;;;28.80;73.70;;;;;;5021570;28;20527;-67
2022/07/03 09:18:07;;;;;;;1999.90;999.90;;;28.80;74.60;;;;;;5018622;28;20533;-67
2022/07/03 09:20:35;;;;;;;1999.90;999.90;;;28.30;74.20;;;;;;5019581;28;20508;-67
2022/07/03 09:23:15;;;;;;;1999.90;999.90;;;28.40;75.80;;;;;;5019179;28;21052;-67
2022/07/03 09:25:54;;;;;;;1999.90;999.90;;;28.90;74.80;;;;;;5020393;28;21120;-67
2022/07/03 09:28:22;;;;;;;1999.90;999.90;;;29.30;72.00;;;;;;5017931;28;20503;-68
2022/07/03 09:31:00;;;;;;;1999.90;999.90;;;29.10;74.30;;;;;;5019503;28;20845;-68
2022/07/03 09:33:27;;;;;;;1999.90;999.90;;;28.90;72.20;;;;;;5020271;28;21289;-68
2022/07/03 09:35:55;;;;;;;1999.90;999.90;;;29.10;74.70;;;;;;5018788;28;20471;-69
2022/07/03 09:38:23;;;;;;;1999.90;999.90;;;29.10;74.90;;;;;;5019674;28;20515;-69
2022/07/03 09:40:51;;;;;;;1999.90;999.90;;;29.50;72.90;;;;;;5019380;28;20881;-68
2022/07/03 09:43:23;;;;;;;1999.90;999.90;;;29.80;72.30;;;;;;5019703;28;20494;-67
2022/07/03 09:45:52;;;;;;;1999.90;999.90;;;29.90;72.10;;;;;;5020921;28;20463;-67
2022/07/03 09:48:27;;;;;;;1999.90;999.90;;;29.80;71.60;;;;;;5018593;28;20479;-67
2022/07/03 09:51:15;;;;;;;1999.90;999.90;;;29.90;70.30;;;;;;5019269;28;20474;-68
2022/07/03 09:53:50;;;;;;;1999.90;999.90;;;30.50;66.80;;;;;;5019296;28;20470;-67
2022/07/03 09:56:17;;;;;;;1999.90;999.90;;;30.00;67.00;;;;;;5019327;28;20532;-67
2022/07/03 09:59:08;;;;;;;1999.90;999.90;;;29.40;68.40;;;;;;5017542;28;20540;-69
2022/07/03 10:01:35;;;;;;;1999.90;999.90;;;29.20;70.60;;;;;;5018906;28;20455;-67
2022/07/03 10:04:19;;;;;;;1999.90;999.90;;;29.30;70.60;;;;;;5019909;28;21032;-67
2022/07/03 10:06:50;;;;;;;1999.90;999.90;;;29.60;72.40;;;;;;5018954;28;20844;-66
2022/07/03 10:09:18;;;;;;;1999.90;999.90;;;29.50;68.60;;;;;;5017506;28;21239;-68
2022/07/03 10:11:46;;;;;;;1999.90;999.90;;;29.60;71.00;;;;;;5020458;28;20455;-67
2022/07/03 10:14:16;;;;;;;1999.90;999.90;;;29.90;70.50;;;;;;5017907;28;20463;-65
2022/07/03 10:16:43;;;;;;;1999.90;999.90;;;30.30;66.90;;;;;;5018324;28;20479;-68
2022/07/03 10:19:14;;;;;;;1999.90;999.90;;;30.50;66.80;;;;;;5018319;28;20481;-65
2022/07/03 10:21:43;;;;;;;1999.90;999.90;;;30.80;67.40;;;;;;5020102;28;20459;-67
2022/07/03 10:24:11;;;;;;;1999.90;999.90;;;30.70;65.50;;;;;;5017937;28;20505;-67
2022/07/03 10:26:38;;;;;;;1999.90;999.90;;;30.40;64.80;;;;;;5018248;28;20581;-66
2022/07/03 10:29:07;;;;;;;1999.90;999.90;;;30.50;64.40;;;;;;5017788;28;20495;-68
2022/07/03 10:31:35;;;;;;;1999.90;999.90;;;30.20;64.40;;;;;;5017501;28;20467;-67
2022/07/03 10:34:02;;;;;;;1999.90;999.90;;;29.50;67.00;;;;;;5017805;28;20494;-67
2022/07/03 10:36:30;;;;;;;1999.90;999.90;;;29.40;67.20;;;;;;5017949;28;20576;-67
2022/07/03 10:39:00;;;;;;;1999.90;999.90;;;29.20;71.30;;;;;;5019336;28;20482;-67
2022/07/03 10:47:04;;;;;;;1999.90;999.90;;;29.20;71.80;;;;;;5019173;28;20486;-66
2022/07/03 10:49:31;;;;;;;1999.90;999.90;;;29.90;71.60;;;;;;5017516;28;20495;-67
2022/07/03 10:51:59;;;;;;;1999.90;999.90;;;30.20;66.10;;;;;;5017908;28;20463;-67
2022/07/03 10:54:27;;;;;;;1999.90;999.90;;;30.60;61.40;;;;;;5017015;28;20720;-66
2022/07/03 10:57:17;;;;;;;1999.90;999.90;;;30.80;61.30;;;;;;5019544;28;20471;-66
2022/07/03 11:00:00;;;;;;;1999.90;999.90;;;30.00;70.30;;;;;;5017735;28;21010;-67
2022/07/03 11:02:32;;;;;;;1999.90;999.90;;;29.80;69.40;;;;;;5017730;28;20463;-66
2022/07/03 11:05:10;;;;;;;1999.90;999.90;;;30.00;64.50;;;;;;5019224;28;20463;-67
2022/07/03 11:07:43;;;;;;;1999.90;999.90;;;30.90;62.10;;;;;;5016975;28;20493;-67
2022/07/03 11:10:34;;;;;;;1999.90;999.90;;;31.00;60.40;;;;;;5017582;28;20487;-66
2022/07/03 11:13:03;;;;;;;1999.90;999.90;;;31.60;59.30;;;;;;5017199;28;20458;-67
2022/07/03 11:15:31;;;;;;;1999.90;999.90;;;31.20;60.10;;;;;;5019432;28;20599;-66
2022/07/03 11:18:15;;;;;;;1999.90;999.90;;;31.40;59.60;;;;;;5017929;28;20521;-67
2022/07/03 11:21:20;;;;;;;1999.90;999.90;;;31.20;59.30;;;;;;5017373;28;20530;-68
2022/07/03 11:24:19;;;;;;;1999.90;999.90;;;31.40;59.60;;;;;;5018683;28;20467;-66
2022/07/03 11:26:45;;;;;;;1999.90;999.90;;;31.20;57.70;;;;;;5016232;28;20518;-66
2022/07/03 11:29:29;;;;;;;1999.90;999.90;;;31.40;58.70;;;;;;5017712;28;20545;-67
2022/07/03 11:31:56;;;;;;;1999.90;999.90;;;30.80;59.10;;;;;;5016987;28;20461;-70
2022/07/03 11:34:24;;;;;;;1999.90;999.90;;;30.80;63.40;;;;;;5017662;28;20522;-67
2022/07/03 11:36:50;;;;;;;1999.90;999.90;;;31.20;63.30;;;;;;5017841;28;20474;-67
2022/07/03 11:39:21;;;;;;;1999.90;999.90;;;31.60;62.50;;;;;;5015903;28;20553;-69
2022/07/03 11:41:48;;;;;;;1999.90;999.90;;;32.10;62.90;;;;;;5017889;28;20890;-68
2022/07/03 11:44:20;;;;;;;1999.90;999.90;;;32.00;61.20;;;;;;5016913;28;20464;-67
2022/07/03 11:46:50;;;;;;;1999.90;999.90;;;31.40;62.00;;;;;;5017896;28;21106;-66
2022/07/03 11:49:18;;;;;;;1999.90;999.90;;;31.20;64.90;;;;;;5016176;28;20915;-67
2022/07/03 11:51:57;;;;;;;1999.90;999.90;;;30.90;65.80;;;;;;5017614;28;20860;-69
2022/07/03 11:54:23;;;;;;;1999.90;999.90;;;30.50;66.10;;;;;;5018663;28;21021;-69
2022/07/03 11:56:50;;;;;;;1999.90;999.90;;;30.50;65.80;;;;;;5015870;28;21005;-67
2022/07/03 11:59:18;;;;;;;1999.90;999.90;;;30.40;67.30;;;;;;5017491;28;21077;-68
2022/07/03 12:01:45;;;;;;;1999.90;999.90;;;30.20;66.80;;;;;;5017255;28;20501;-71
2022/07/03 12:04:14;;;;;;;1999.90;999.90;;;30.40;67.10;;;;;;5016265;28;20518;-68
2022/07/03 12:06:42;;;;;;;1999.90;999.90;;;29.90;68.20;;;;;;5026640;28;20821;-67
2022/07/03 12:09:22;;;;;;;1999.90;999.90;;;29.60;69.10;;;;;;5031320;28;21030;-67
2022/07/03 12:11:59;;;;;;;1999.90;999.90;;;29.60;68.10;;;;;;5031855;28;20462;-67
2022/07/03 12:14:41;;;;;;;1999.90;999.90;;;29.60;66.70;;;;;;5021573;28;21053;-67
2022/07/03 12:17:09;;;;;;;1999.90;999.90;;;29.90;66.80;;;;;;5015753;28;20467;-70
2022/07/03 12:19:37;;;;;;;1999.90;999.90;;;29.90;65.20;;;;;;5017012;28;20475;-68
2022/07/03 12:22:04;;;;;;;1999.90;999.90;;;29.80;66.30;;;;;;5016452;28;20459;-66
2022/07/03 12:24:32;;;;;;;1999.90;999.90;;;29.80;67.90;;;;;;5017720;28;20467;-67